createdAt,value
2019-04-16T00:00:55.226Z,4.86
2019-04-16T00:01:55.253Z,4.89
2019-04-16T00:02:55.280Z,4.89
2019-04-16T00:03:55.307Z,4.90
2019-04-16T00:04:56.748Z,5.00
2019-04-16T00:05:58.645Z,5.02
2019-04-16T00:06:55.392Z,4.95
2019-04-16T00:07:55.422Z,4.97
2019-04-16T00:08:57.238Z,4.92
2019-04-16T00:09:55.632Z,4.95
2019-04-16T00:10:55.658Z,4.97
2019-04-16T00:11:55.530Z,5.02
2019-04-16T00:12:55.558Z,4.92
2019-04-16T00:13:55.587Z,4.89
2019-04-16T00:14:55.621Z,4.90
2019-04-16T00:15:55.644Z,4.90
2019-04-16T00:16:55.864Z,4.97
2019-04-16T00:17:55.699Z,4.92
2019-04-16T00:18:57.840Z,5.00
2019-04-16T00:19:55.755Z,4.92
2019-04-16T00:20:55.785Z,4.95
2019-04-16T00:21:55.811Z,4.87
2019-04-16T00:22:55.838Z,4.97
2019-04-16T00:23:55.873Z,4.90
2019-04-16T00:24:55.897Z,4.98
2019-04-16T00:25:56.483Z,4.95
2019-04-16T00:26:59.325Z,4.92
2019-04-16T00:27:59.552Z,4.94
2019-04-16T00:28:56.010Z,4.92
2019-04-16T00:29:56.047Z,4.95
2019-04-16T00:30:56.065Z,4.92
2019-04-16T00:31:56.094Z,4.87
2019-04-16T00:32:56.122Z,4.94
2019-04-16T00:33:56.150Z,4.92
2019-04-16T00:34:56.178Z,4.89
2019-04-16T00:35:56.209Z,4.94
2019-04-16T00:36:56.235Z,4.94
2019-04-16T00:37:56.263Z,4.89
2019-04-16T00:38:56.290Z,4.95
2019-04-16T00:39:56.969Z,4.89
2019-04-16T00:41:00.752Z,4.97
2019-04-16T00:41:56.374Z,4.84
2019-04-16T00:42:56.407Z,4.98
2019-04-16T00:43:56.432Z,4.94
2019-04-16T00:44:56.463Z,4.84
2019-04-16T00:45:56.492Z,4.86
2019-04-16T00:46:56.706Z,4.87
2019-04-16T00:47:56.544Z,4.87
2019-04-16T00:48:56.580Z,4.82
2019-04-16T00:49:58.820Z,4.87
2019-04-16T00:50:56.633Z,4.86
2019-04-16T00:51:56.658Z,4.92
2019-04-16T00:52:56.686Z,4.79
2019-04-16T00:53:56.965Z,4.78
2019-04-16T00:54:56.976Z,4.86
2019-04-16T00:55:56.784Z,4.75
2019-04-16T00:56:56.800Z,4.83
2019-04-16T00:57:56.826Z,4.83
2019-04-16T00:58:56.855Z,4.84
2019-04-16T00:59:57.022Z,4.87
2019-04-16T01:00:56.974Z,4.87
2019-04-16T01:01:56.940Z,4.82
2019-04-16T01:02:56.967Z,4.83
2019-04-16T01:03:57.000Z,4.87
2019-04-16T01:04:57.029Z,4.86
2019-04-16T01:05:57.053Z,4.78
2019-04-16T01:06:57.081Z,4.79
2019-04-16T01:07:57.109Z,4.75
2019-04-16T01:08:57.140Z,4.70
2019-04-16T01:09:57.165Z,4.74
2019-04-16T01:10:57.197Z,4.83
2019-04-16T01:11:57.224Z,4.74
2019-04-16T01:12:57.252Z,4.74
2019-04-16T01:13:57.278Z,4.76
2019-04-16T01:15:00.686Z,4.71
2019-04-16T01:15:57.335Z,4.75
2019-04-16T01:16:57.363Z,4.83
2019-04-16T01:17:57.393Z,4.79
2019-04-16T01:18:57.422Z,4.70
2019-04-16T01:19:57.450Z,4.83
2019-04-16T01:20:57.500Z,4.75
2019-04-16T01:21:57.507Z,4.70
2019-04-16T01:22:57.533Z,4.61
2019-04-16T01:23:57.561Z,4.70
2019-04-16T01:24:57.591Z,4.74
2019-04-16T01:25:57.630Z,4.75
2019-04-16T01:26:58.203Z,4.74
2019-04-16T01:28:00.972Z,4.63
2019-04-16T01:29:00.203Z,4.63
2019-04-16T01:29:57.732Z,4.70
2019-04-16T01:30:57.760Z,4.70
2019-04-16T01:31:57.827Z,4.61
2019-04-16T01:32:57.817Z,4.63
2019-04-16T01:33:57.847Z,4.63
2019-04-16T01:34:57.876Z,4.63
2019-04-16T01:35:57.916Z,4.61
2019-04-16T01:36:57.930Z,4.66
2019-04-16T01:37:57.986Z,4.63
2019-04-16T01:39:14.725Z,4.63
2019-04-16T01:39:58.017Z,4.64
2019-04-16T01:40:58.043Z,4.67
2019-04-16T01:41:58.074Z,4.61
2019-04-16T01:42:58.101Z,4.58
2019-04-16T01:43:58.435Z,4.67
2019-04-16T01:44:59.787Z,4.67
2019-04-16T01:46:00.855Z,4.67
2019-04-16T01:46:58.220Z,4.58
2019-04-16T01:47:58.257Z,4.64
2019-04-16T01:48:58.317Z,4.66
2019-04-16T01:49:58.302Z,4.66
2019-04-16T01:50:58.326Z,4.61
2019-04-16T01:51:58.357Z,4.60
2019-04-16T01:52:58.384Z,4.67
2019-04-16T01:53:58.527Z,4.63
2019-04-16T01:54:58.605Z,4.60
2019-04-16T01:55:58.627Z,4.66
2019-04-16T01:56:59.904Z,4.60
2019-04-16T01:57:59.627Z,4.67
2019-04-16T01:58:58.661Z,4.60
2019-04-16T01:59:58.763Z,4.61
2019-04-16T02:00:58.737Z,4.58
2019-04-16T02:01:58.638Z,4.58
2019-04-16T02:02:58.666Z,4.60
2019-04-16T02:03:59.006Z,4.53
2019-04-16T02:04:58.725Z,4.63
2019-04-16T02:05:58.751Z,4.53
2019-04-16T02:06:58.780Z,4.61
2019-04-16T02:07:59.912Z,4.58
2019-04-16T02:09:01.846Z,4.61
2019-04-16T02:09:58.864Z,4.53
2019-04-16T02:10:58.900Z,4.63
2019-04-16T02:11:58.928Z,4.57
2019-04-16T02:12:58.952Z,4.60
2019-04-16T02:13:58.981Z,4.56
2019-04-16T02:14:59.012Z,4.58
2019-04-16T02:15:59.034Z,4.61
2019-04-16T02:16:59.067Z,4.60
2019-04-16T02:17:59.952Z,4.61
2019-04-16T02:19:01.254Z,4.66
2019-04-16T02:20:02.106Z,4.60
2019-04-16T02:20:59.181Z,4.67
2019-04-16T02:21:59.205Z,4.64
2019-04-16T02:22:59.235Z,4.67
2019-04-16T02:23:59.265Z,4.70
2019-04-16T02:24:59.296Z,4.76
2019-04-16T02:25:59.318Z,4.74
2019-04-16T02:26:59.355Z,4.78
2019-04-16T02:27:59.378Z,4.75
2019-04-16T02:28:59.622Z,4.71
2019-04-16T02:30:02.938Z,4.75
2019-04-16T02:30:59.461Z,4.76
2019-04-16T02:31:59.489Z,4.83
2019-04-16T02:32:59.520Z,4.78
2019-04-16T02:33:59.545Z,4.75
2019-04-16T02:34:59.575Z,4.75
2019-04-16T02:35:59.606Z,4.75
2019-04-16T02:37:02.491Z,4.76
2019-04-16T02:37:59.659Z,4.75
2019-04-16T02:38:59.693Z,4.75
2019-04-16T02:39:59.717Z,4.71
2019-04-16T02:40:59.743Z,4.74
2019-04-16T02:41:59.773Z,4.76
2019-04-16T02:43:04.176Z,4.79
2019-04-16T02:43:59.828Z,4.76
2019-04-16T02:44:59.858Z,4.71
2019-04-16T02:45:59.891Z,4.75
2019-04-16T02:47:05.476Z,4.78
2019-04-16T02:47:59.942Z,4.75
2019-04-16T02:48:59.971Z,4.71
2019-04-16T02:49:59.999Z,4.78
2019-04-16T02:51:05.277Z,4.74
2019-04-16T02:52:00.058Z,4.74
2019-04-16T02:53:00.091Z,4.70
2019-04-16T02:54:00.199Z,4.75
2019-04-16T02:55:07.660Z,4.74
2019-04-16T02:56:00.167Z,4.71
2019-04-16T02:57:00.198Z,4.68
2019-04-16T02:58:01.872Z,4.61
2019-04-16T02:59:00.254Z,4.71
2019-04-16T03:00:00.282Z,4.71
2019-04-16T03:01:00.308Z,4.70
2019-04-16T03:02:00.338Z,4.74
2019-04-16T03:03:00.362Z,4.70
2019-04-16T03:04:00.392Z,4.60
2019-04-16T03:05:00.433Z,4.60
2019-04-16T03:06:00.942Z,4.66
2019-04-16T03:07:03.233Z,4.63
2019-04-16T03:08:01.549Z,4.58
2019-04-16T03:09:00.534Z,4.71
2019-04-16T03:10:01.963Z,4.74
2019-04-16T03:11:00.590Z,4.75
2019-04-16T03:12:00.620Z,4.70
2019-04-16T03:13:00.650Z,4.66
2019-04-16T03:14:00.676Z,4.70
2019-04-16T03:15:01.867Z,4.76
2019-04-16T03:16:02.869Z,4.71
2019-04-16T03:17:00.788Z,4.82
2019-04-16T03:18:00.790Z,4.78
2019-04-16T03:19:00.821Z,4.82
2019-04-16T03:20:00.848Z,4.71
2019-04-16T03:21:00.877Z,4.75
2019-04-16T03:22:02.181Z,4.79
2019-04-16T03:23:05.311Z,4.74
2019-04-16T03:24:00.961Z,4.70
2019-04-16T03:25:00.991Z,4.75
2019-04-16T03:26:01.020Z,4.75
2019-04-16T03:27:04.321Z,4.71
2019-04-16T03:28:01.078Z,4.75
2019-04-16T03:29:01.107Z,4.78
2019-04-16T03:30:03.550Z,4.89
2019-04-16T03:31:01.161Z,4.94
2019-04-16T03:32:01.205Z,4.90
2019-04-16T03:33:10.427Z,4.92
2019-04-16T03:34:01.256Z,4.95
2019-04-16T03:35:01.275Z,4.95
2019-04-16T03:36:01.304Z,4.94
2019-04-16T03:37:01.899Z,4.89
2019-04-16T03:38:01.683Z,4.94
2019-04-16T03:39:01.391Z,4.95
2019-04-16T03:40:14.466Z,5.00
2019-04-16T03:41:01.450Z,4.97
2019-04-16T03:42:01.479Z,4.95
2019-04-16T03:43:04.039Z,5.01
2019-04-16T03:44:04.116Z,5.07
2019-04-16T03:45:01.563Z,5.08
2019-04-16T03:46:01.591Z,4.98
2019-04-16T03:47:01.620Z,5.13
2019-04-16T03:48:01.657Z,5.13
2019-04-16T03:49:01.678Z,5.15
2019-04-16T03:50:01.707Z,5.16
2019-04-16T03:51:03.656Z,5.15
2019-04-16T03:52:04.829Z,5.15
2019-04-16T03:53:01.793Z,5.19
2019-04-16T03:54:04.751Z,5.22
2019-04-16T03:55:01.855Z,5.23
2019-04-16T03:56:01.877Z,5.28
2019-04-16T03:57:02.806Z,5.26
2019-04-16T03:58:05.250Z,5.28
2019-04-16T03:59:01.963Z,5.22
2019-04-16T04:00:02.116Z,5.33
2019-04-16T04:01:02.023Z,5.31
2019-04-16T04:02:02.053Z,5.40
2019-04-16T04:03:02.078Z,5.46
2019-04-16T04:04:02.112Z,5.54
2019-04-16T04:05:06.380Z,5.56
2019-04-16T04:06:03.550Z,5.56
2019-04-16T04:07:02.196Z,5.62
2019-04-16T04:08:02.228Z,5.67
2019-04-16T04:09:02.255Z,5.70
2019-04-16T04:10:02.279Z,5.77
2019-04-16T04:11:02.309Z,5.73
2019-04-16T04:12:02.337Z,5.81
2019-04-16T04:13:04.891Z,5.72
2019-04-16T04:14:02.397Z,5.74
2019-04-16T04:15:02.426Z,5.81
2019-04-16T04:16:02.456Z,5.87
2019-04-16T04:17:05.679Z,5.87
2019-04-16T04:18:02.524Z,5.81
2019-04-16T04:19:02.546Z,5.95
2019-04-16T04:20:02.571Z,5.95
2019-04-16T04:21:02.604Z,5.99
2019-04-16T04:22:02.630Z,5.95
2019-04-16T04:23:02.667Z,6.06
2019-04-16T04:24:02.689Z,6.05
2019-04-16T04:25:04.523Z,6.10
2019-04-16T04:26:05.508Z,5.99
2019-04-16T04:27:02.775Z,6.02
2019-04-16T04:28:02.808Z,6.01
2019-04-16T04:29:06.023Z,5.94
2019-04-16T04:30:02.865Z,5.97
2019-04-16T04:31:02.897Z,6.06
2019-04-16T04:32:03.618Z,5.99
2019-04-16T04:33:07.408Z,6.02
2019-04-16T04:34:02.983Z,6.16
2019-04-16T04:35:03.014Z,6.15
2019-04-16T04:36:03.043Z,6.19
2019-04-16T04:37:03.075Z,6.16
2019-04-16T04:38:04.229Z,6.13
2019-04-16T04:39:03.134Z,6.19
2019-04-16T04:40:03.173Z,6.32
2019-04-16T04:41:03.194Z,6.20
2019-04-16T04:42:03.224Z,6.22
2019-04-16T04:43:03.251Z,6.15
2019-04-16T04:44:04.551Z,6.34
2019-04-16T04:45:08.428Z,6.35
2019-04-16T04:46:03.344Z,6.39
2019-04-16T04:47:03.372Z,6.36
2019-04-16T04:48:03.404Z,6.41
2019-04-16T04:49:03.433Z,6.44
2019-04-16T04:50:04.359Z,6.47
2019-04-16T04:51:06.715Z,6.56
2019-04-16T04:52:03.519Z,6.67
2019-04-16T04:53:03.550Z,6.62
2019-04-16T04:54:03.579Z,6.47
2019-04-16T04:55:03.610Z,6.56
2019-04-16T04:56:03.638Z,6.62
2019-04-16T04:57:03.671Z,6.70
2019-04-16T04:58:03.704Z,6.87
2019-04-16T04:59:05.188Z,6.97
2019-04-16T05:00:05.655Z,7.03
2019-04-16T05:01:03.791Z,6.95
2019-04-16T05:02:03.822Z,6.90
2019-04-16T05:03:03.852Z,6.86
2019-04-16T05:04:03.880Z,6.90
2019-04-16T05:05:03.915Z,6.92
2019-04-16T05:06:03.943Z,6.97
2019-04-16T05:07:04.920Z,6.89
2019-04-16T05:08:04.001Z,6.92
2019-04-16T05:09:04.036Z,6.85
2019-04-16T05:10:04.568Z,7.00
2019-04-16T05:11:04.093Z,7.07
2019-04-16T05:12:04.124Z,6.90
2019-04-16T05:13:04.155Z,7.00
2019-04-16T05:14:04.188Z,6.80
2019-04-16T05:15:04.225Z,6.90
2019-04-16T05:16:06.965Z,6.93
2019-04-16T05:17:06.653Z,7.05
2019-04-16T05:18:05.948Z,7.13
2019-04-16T05:19:04.339Z,7.26
2019-04-16T05:20:04.371Z,7.25
2019-04-16T05:21:04.404Z,7.28
2019-04-16T05:22:04.436Z,7.31
2019-04-16T05:23:04.467Z,7.43
2019-04-16T05:24:04.498Z,7.98
2019-04-16T05:25:04.529Z,8.31
2019-04-16T05:26:05.328Z,8.53
2019-04-16T05:27:05.531Z,8.66
2019-04-16T05:28:04.619Z,8.38
2019-04-16T05:29:04.652Z,8.54
2019-04-16T05:30:04.683Z,8.72
2019-04-16T05:31:04.713Z,8.13
2019-04-16T05:32:04.750Z,8.71
2019-04-16T05:33:05.615Z,9.63
2019-04-16T05:34:06.012Z,10.83
2019-04-16T05:35:09.247Z,11.12
2019-04-16T05:36:04.878Z,11.53
2019-04-16T05:37:04.909Z,12.33
2019-04-16T05:38:04.941Z,12.18
2019-04-16T05:39:04.977Z,11.22
2019-04-16T05:40:05.007Z,11.10
2019-04-16T05:41:13.024Z,9.97
2019-04-16T05:42:05.073Z,10.13
2019-04-16T05:43:05.113Z,10.23
2019-04-16T05:44:05.145Z,10.07
2019-04-16T05:45:05.522Z,10.05
2019-04-16T05:46:05.467Z,10.83
2019-04-16T05:47:05.248Z,11.16
2019-04-16T05:48:05.299Z,11.51
2019-04-16T05:49:05.325Z,11.52
2019-04-16T05:50:05.355Z,11.71
2019-04-16T05:51:05.392Z,10.76
2019-04-16T05:52:05.434Z,9.81
2019-04-16T05:53:08.266Z,10.02
2019-04-16T05:54:05.518Z,10.18
2019-04-16T05:55:05.540Z,10.67
2019-04-16T05:56:05.572Z,10.87
2019-04-16T05:57:05.610Z,10.49
2019-04-16T05:58:05.648Z,10.90
2019-04-16T05:59:05.683Z,10.86
2019-04-16T06:00:09.418Z,10.57
2019-04-16T06:01:05.758Z,11.01
2019-04-16T06:02:05.795Z,11.86
2019-04-16T06:03:05.828Z,12.02
2019-04-16T06:04:05.866Z,11.95
2019-04-16T06:05:05.903Z,11.52
2019-04-16T06:06:05.941Z,11.23
2019-04-16T06:07:07.666Z,11.07
2019-04-16T06:08:06.302Z,11.44
2019-04-16T06:09:06.054Z,11.31
2019-04-16T06:10:06.967Z,11.51
2019-04-16T06:11:06.130Z,11.48
2019-04-16T06:12:08.891Z,11.81
2019-04-16T06:13:06.204Z,11.97
2019-04-16T06:14:06.238Z,12.32
2019-04-16T06:15:06.290Z,12.53
2019-04-16T06:16:06.320Z,12.69
2019-04-16T06:17:06.354Z,13.28
2019-04-16T06:18:06.389Z,13.13
2019-04-16T06:19:08.520Z,13.62
2019-04-16T06:20:06.467Z,14.11
2019-04-16T06:21:06.505Z,13.80
2019-04-16T06:22:06.554Z,13.36
2019-04-16T06:23:06.580Z,12.83
2019-04-16T06:24:06.618Z,12.51
2019-04-16T06:25:09.738Z,12.65
2019-04-16T06:26:06.697Z,12.58
2019-04-16T06:27:06.736Z,11.76
2019-04-16T06:28:06.772Z,11.88
2019-04-16T06:29:06.818Z,11.68
2019-04-16T06:30:06.850Z,12.20
2019-04-16T06:31:10.065Z,12.15
2019-04-16T06:32:08.428Z,11.99
2019-04-16T06:33:06.965Z,11.27
2019-04-16T06:34:07.008Z,11.59
2019-04-16T06:35:07.042Z,12.07
2019-04-16T06:36:07.084Z,12.32
2019-04-16T06:37:07.119Z,12.28
2019-04-16T06:38:07.158Z,11.02
2019-04-16T06:39:07.198Z,11.52
2019-04-16T06:40:07.236Z,12.30
2019-04-16T06:41:07.278Z,11.97
2019-04-16T06:42:07.313Z,12.70
2019-04-16T06:43:07.363Z,11.96
2019-04-16T06:44:07.390Z,11.95
2019-04-16T06:45:07.427Z,11.93
2019-04-16T06:46:08.546Z,11.63
2019-04-16T06:47:10.528Z,12.18
2019-04-16T06:48:12.698Z,11.68
2019-04-16T06:49:07.584Z,11.44
2019-04-16T06:50:07.622Z,11.52
2019-04-16T06:51:11.675Z,11.81
2019-04-16T06:52:07.701Z,12.18
2019-04-16T06:53:07.738Z,12.30
2019-04-16T06:54:07.776Z,11.97
2019-04-16T06:55:07.814Z,12.03
2019-04-16T06:56:08.760Z,12.28
2019-04-16T06:57:09.720Z,12.02
2019-04-16T06:58:07.931Z,12.35
2019-04-16T06:59:07.969Z,12.65
2019-04-16T07:00:08.012Z,12.69
2019-04-16T07:01:08.048Z,12.68
2019-04-16T07:02:10.547Z,12.03
2019-04-16T07:03:08.125Z,12.57
2019-04-16T07:04:08.171Z,13.23
2019-04-16T07:05:08.204Z,13.16
2019-04-16T07:06:08.246Z,12.75
2019-04-16T07:07:09.441Z,13.54
2019-04-16T07:08:08.323Z,13.06
2019-04-16T07:09:08.362Z,12.39
2019-04-16T07:10:08.403Z,12.87
2019-04-16T07:11:08.439Z,12.68
2019-04-16T07:12:08.480Z,11.62
2019-04-16T07:13:11.186Z,11.80
2019-04-16T07:14:08.560Z,12.29
2019-04-16T07:15:08.601Z,12.70
2019-04-16T07:16:08.638Z,13.61
2019-04-16T07:17:08.680Z,13.73
2019-04-16T07:18:08.718Z,14.08
2019-04-16T07:19:11.221Z,14.08
2019-04-16T07:20:13.090Z,14.52
2019-04-16T07:21:08.839Z,14.36
2019-04-16T07:22:08.880Z,14.38
2019-04-16T07:23:08.920Z,14.05
2019-04-16T07:24:09.015Z,13.68
2019-04-16T07:25:09.134Z,13.26
2019-04-16T07:26:13.562Z,12.88
2019-04-16T07:27:09.119Z,13.36
2019-04-16T07:28:09.124Z,13.20
2019-04-16T07:29:09.276Z,13.19
2019-04-16T07:30:09.459Z,13.82
2019-04-16T07:31:13.267Z,13.28
2019-04-16T07:32:09.288Z,13.30
2019-04-16T07:33:09.328Z,13.58
2019-04-16T07:34:09.415Z,13.09
2019-04-16T07:35:09.410Z,13.82
2019-04-16T07:36:09.456Z,14.31
2019-04-16T07:37:09.495Z,14.30
2019-04-16T07:38:11.566Z,14.87
2019-04-16T07:39:09.598Z,15.17
2019-04-16T07:40:10.469Z,15.76
2019-04-16T07:41:12.104Z,14.79
2019-04-16T07:43:09.745Z,14.49
2019-04-16T07:43:47.060Z,15.04
2019-04-16T07:44:11.097Z,14.52
2019-04-16T07:45:12.491Z,14.52
2019-04-16T07:46:09.868Z,15.19
2019-04-16T07:47:09.912Z,15.35
2019-04-16T07:48:09.955Z,15.66
2019-04-16T07:49:09.999Z,15.45
2019-04-16T07:50:10.038Z,14.71
2019-04-16T07:51:10.118Z,14.43
2019-04-16T07:52:12.200Z,13.64
2019-04-16T07:53:13.509Z,13.16
2019-04-16T07:54:10.210Z,12.54
2019-04-16T07:55:10.494Z,13.26
2019-04-16T07:56:10.296Z,13.78
2019-04-16T07:57:10.343Z,13.86
2019-04-16T07:58:10.377Z,14.08
2019-04-16T07:59:10.420Z,14.22
2019-04-16T08:00:10.464Z,14.37
2019-04-16T08:01:12.745Z,13.91
2019-04-16T08:02:10.545Z,14.05
2019-04-16T08:03:10.587Z,14.18
2019-04-16T08:04:10.631Z,14.90
2019-04-16T08:05:10.675Z,15.12
2019-04-16T08:06:14.298Z,14.94
2019-04-16T08:07:10.757Z,14.99
2019-04-16T08:08:10.802Z,15.25
2019-04-16T08:09:10.845Z,15.76
2019-04-16T08:10:10.883Z,13.80
2019-04-16T08:11:11.114Z,13.75
2019-04-16T08:12:28.652Z,13.78
2019-04-16T08:13:13.932Z,14.36
2019-04-16T08:14:14.551Z,14.93
2019-04-16T08:15:14.614Z,15.05
2019-04-16T08:16:11.360Z,14.73
2019-04-16T08:17:11.189Z,14.82
2019-04-16T08:18:11.224Z,14.55
2019-04-16T08:19:12.238Z,14.48
2019-04-16T08:20:11.313Z,14.08
2019-04-16T08:21:12.486Z,13.79
2019-04-16T08:22:15.475Z,14.87
2019-04-16T08:23:11.439Z,14.70
2019-04-16T08:24:11.480Z,14.78
2019-04-16T08:25:11.524Z,15.67
2019-04-16T08:26:13.678Z,15.78
2019-04-16T08:27:18.065Z,15.76
2019-04-16T08:28:11.656Z,16.36
2019-04-16T08:29:11.696Z,15.59
2019-04-16T08:30:12.034Z,16.28
2019-04-16T08:31:12.752Z,15.37
2019-04-16T08:32:12.904Z,14.99
2019-04-16T08:33:11.896Z,14.40
2019-04-16T08:34:11.912Z,14.56
2019-04-16T08:35:11.955Z,14.74
2019-04-16T08:36:11.998Z,14.90
2019-04-16T08:37:12.046Z,15.22
2019-04-16T08:38:12.087Z,15.07
2019-04-16T08:39:12.136Z,14.45
2019-04-16T08:40:13.143Z,14.38
2019-04-16T08:41:13.145Z,14.61
2019-04-16T08:42:12.263Z,15.15
2019-04-16T08:43:12.303Z,15.84
2019-04-16T08:44:12.351Z,15.81
2019-04-16T08:45:12.395Z,15.88
2019-04-16T08:46:12.440Z,15.67
2019-04-16T08:47:12.982Z,15.63
2019-04-16T08:48:17.036Z,16.21
2019-04-16T08:49:15.049Z,15.73
2019-04-16T08:50:12.691Z,16.02
2019-04-16T08:51:12.659Z,16.80
2019-04-16T08:52:12.706Z,17.04
2019-04-16T08:53:14.254Z,17.14
2019-04-16T08:54:17.676Z,16.76
2019-04-16T08:55:12.879Z,15.91
2019-04-16T08:56:12.884Z,15.18
2019-04-16T08:57:12.931Z,14.56
2019-04-16T08:58:13.007Z,14.90
2019-04-16T08:59:13.020Z,15.27
2019-04-16T09:00:15.183Z,15.85
2019-04-16T09:01:15.463Z,16.09
2019-04-16T09:02:13.156Z,16.76
2019-04-16T09:03:15.376Z,17.05
2019-04-16T09:04:13.244Z,17.10
2019-04-16T09:05:13.292Z,16.77
2019-04-16T09:06:14.167Z,15.94
2019-04-16T09:07:16.362Z,16.34
2019-04-16T09:08:13.825Z,16.86
2019-04-16T09:09:18.262Z,16.34
2019-04-16T09:10:18.130Z,16.74
2019-04-16T09:11:23.246Z,17.19
2019-04-16T09:12:13.607Z,17.68
2019-04-16T09:13:15.269Z,17.30
2019-04-16T09:14:13.771Z,16.74
2019-04-16T09:15:13.766Z,16.37
2019-04-16T09:16:13.791Z,16.13
2019-04-16T09:17:13.835Z,15.47
2019-04-16T09:18:13.883Z,15.65
2019-04-16T09:19:13.927Z,15.51
2019-04-16T09:20:13.973Z,15.12
2019-04-16T09:21:14.018Z,15.29
2019-04-16T09:22:16.843Z,15.85
2019-04-16T09:23:14.110Z,15.90
2019-04-16T09:24:14.156Z,15.47
2019-04-16T09:25:14.242Z,15.44
2019-04-16T09:26:15.640Z,15.55
2019-04-16T09:27:14.292Z,15.45
2019-04-16T09:28:25.209Z,16.25
2019-04-16T09:29:14.384Z,16.02
2019-04-16T09:30:17.828Z,16.51
2019-04-16T09:31:14.478Z,16.77
2019-04-16T09:32:14.528Z,17.46
2019-04-16T09:33:14.573Z,17.13
2019-04-16T09:34:14.611Z,16.57
2019-04-16T09:35:19.758Z,15.02
2019-04-16T09:36:14.705Z,15.30
2019-04-16T09:37:14.750Z,15.14
2019-04-16T09:38:14.795Z,15.73
2019-04-16T09:39:14.844Z,16.32
2019-04-16T09:40:17.675Z,16.92
2019-04-16T09:41:14.933Z,16.55
2019-04-16T09:42:14.979Z,16.34
2019-04-16T09:43:17.730Z,16.73
2019-04-16T09:44:15.078Z,17.13
2019-04-16T09:45:15.132Z,17.34
2019-04-16T09:46:21.185Z,18.06
2019-04-16T09:47:15.324Z,18.46
2019-04-16T09:48:15.258Z,18.57
2019-04-16T09:49:15.305Z,18.60
2019-04-16T09:50:15.346Z,18.70
2019-04-16T09:51:19.233Z,18.23
2019-04-16T09:52:15.444Z,18.23
2019-04-16T09:53:15.487Z,18.39
2019-04-16T09:54:15.530Z,18.00
2019-04-16T09:55:19.050Z,17.39
2019-04-16T09:56:15.623Z,16.80
2019-04-16T09:57:15.837Z,17.02
2019-04-16T09:58:15.717Z,16.18
2019-04-16T09:59:16.721Z,16.06
2019-04-16T10:00:17.089Z,16.58
2019-04-16T10:01:15.858Z,16.06
2019-04-16T10:02:15.900Z,16.54
2019-04-16T10:03:15.953Z,16.54
2019-04-16T10:04:16.009Z,16.36
2019-04-16T10:05:16.045Z,17.16
2019-04-16T10:06:16.085Z,17.69
2019-04-16T10:07:16.134Z,16.41
2019-04-16T10:08:16.176Z,17.12
2019-04-16T10:09:19.750Z,17.12
2019-04-16T10:10:16.284Z,17.75
2019-04-16T10:11:18.500Z,17.02
2019-04-16T10:12:16.449Z,17.49
2019-04-16T10:13:29.648Z,17.47
2019-04-16T10:14:16.453Z,17.76
2019-04-16T10:15:16.580Z,18.09
2019-04-16T10:16:16.770Z,17.75
2019-04-16T10:17:16.589Z,17.38
2019-04-16T10:18:16.691Z,17.71
2019-04-16T10:19:16.683Z,17.80
2019-04-16T10:20:16.732Z,18.06
2019-04-16T10:21:19.680Z,17.28
2019-04-16T10:22:16.840Z,17.47
2019-04-16T10:23:16.867Z,17.13
2019-04-16T10:24:16.931Z,17.05
2019-04-16T10:25:16.957Z,16.64
2019-04-16T10:26:17.174Z,17.04
2019-04-16T10:27:17.051Z,17.32
2019-04-16T10:28:17.112Z,17.16
2019-04-16T10:29:17.195Z,17.65
2019-04-16T10:30:17.418Z,17.71
2019-04-16T10:31:17.239Z,17.75
2019-04-16T10:32:18.249Z,18.41
2019-04-16T10:33:17.322Z,18.37
2019-04-16T10:34:17.367Z,18.39
2019-04-16T10:35:17.416Z,18.41
2019-04-16T10:36:17.467Z,18.19
2019-04-16T10:37:17.689Z,17.98
2019-04-16T10:38:17.569Z,18.12
2019-04-16T10:39:17.605Z,18.23
2019-04-16T10:40:17.836Z,18.03
2019-04-16T10:41:17.697Z,18.21
2019-04-16T10:42:17.764Z,18.53
2019-04-16T10:43:17.813Z,19.05
2019-04-16T10:44:17.869Z,19.24
2019-04-16T10:45:17.876Z,19.34
2019-04-16T10:46:17.950Z,18.76
2019-04-16T10:47:19.903Z,18.42
2019-04-16T10:48:18.032Z,17.86
2019-04-16T10:49:18.065Z,18.34
2019-04-16T10:50:18.106Z,18.12
2019-04-16T10:51:18.157Z,17.37
2019-04-16T10:52:18.204Z,17.16
2019-04-16T10:53:18.244Z,17.59
2019-04-16T10:54:18.287Z,18.06
2019-04-16T10:55:18.751Z,17.97
2019-04-16T10:56:21.180Z,17.78
2019-04-16T10:57:18.427Z,17.75
2019-04-16T10:58:18.475Z,17.52
2019-04-16T10:59:18.519Z,17.47
2019-04-16T11:00:18.566Z,16.95
2019-04-16T11:01:18.640Z,16.77
2019-04-16T11:02:18.688Z,17.30
2019-04-16T11:03:18.731Z,17.94
2019-04-16T11:04:18.757Z,18.26
2019-04-16T11:05:20.073Z,18.00
2019-04-16T11:06:18.850Z,17.75
2019-04-16T11:07:18.917Z,17.37
2019-04-16T11:08:18.955Z,17.59
2019-04-16T11:09:19.006Z,17.93
2019-04-16T11:10:19.034Z,18.08
2019-04-16T11:11:19.080Z,17.31
2019-04-16T11:12:19.889Z,17.34
2019-04-16T11:13:19.164Z,17.52
2019-04-16T11:14:19.206Z,17.97
2019-04-16T11:15:19.252Z,18.21
2019-04-16T11:16:19.386Z,16.72
2019-04-16T11:17:19.349Z,17.12
2019-04-16T11:18:19.391Z,15.85
2019-04-16T11:19:19.435Z,16.21
2019-04-16T11:20:19.484Z,17.02
2019-04-16T11:21:19.540Z,16.55
2019-04-16T11:22:19.587Z,16.40
2019-04-16T11:23:19.652Z,16.89
2019-04-16T11:24:20.577Z,16.34
2019-04-16T11:25:19.714Z,16.02
2019-04-16T11:26:19.754Z,15.47
2019-04-16T11:27:19.803Z,15.51
2019-04-16T11:28:19.870Z,15.52
2019-04-16T11:29:19.896Z,16.21
2019-04-16T11:30:19.949Z,16.34
2019-04-16T11:31:20.011Z,16.89
2019-04-16T11:32:20.034Z,17.20
2019-04-16T11:33:20.072Z,17.05
2019-04-16T11:34:20.124Z,16.97
2019-04-16T11:35:22.985Z,16.77
2019-04-16T11:36:21.099Z,16.29
2019-04-16T11:37:20.251Z,16.12
2019-04-16T11:38:20.322Z,16.65
2019-04-16T11:39:20.341Z,17.20
2019-04-16T11:40:20.389Z,17.86
2019-04-16T11:41:20.431Z,18.23
2019-04-16T11:42:20.478Z,18.51
2019-04-16T11:43:20.563Z,18.12
2019-04-16T11:44:20.566Z,17.12
2019-04-16T11:45:20.621Z,17.47
2019-04-16T11:46:20.664Z,18.08
2019-04-16T11:47:20.705Z,18.39
2019-04-16T11:48:20.772Z,19.01
2019-04-16T11:49:20.800Z,19.01
2019-04-16T11:50:20.942Z,19.42
2019-04-16T11:51:20.908Z,19.35
2019-04-16T11:52:20.936Z,19.34
2019-04-16T11:53:21.005Z,19.26
2019-04-16T11:54:21.046Z,18.30
2019-04-16T11:55:21.094Z,18.74
2019-04-16T11:56:22.680Z,18.96
2019-04-16T11:57:21.195Z,19.09
2019-04-16T11:58:21.245Z,19.63
2019-04-16T11:59:21.267Z,19.94
2019-04-16T12:00:21.337Z,19.79
2019-04-16T12:01:23.121Z,19.93
2019-04-16T12:02:21.393Z,19.97
2019-04-16T12:03:21.432Z,19.71
2019-04-16T12:04:21.523Z,18.45
2019-04-16T12:05:21.530Z,18.60
2019-04-16T12:06:28.311Z,18.42
2019-04-16T12:07:21.659Z,18.31
2019-04-16T12:08:21.678Z,18.60
2019-04-16T12:09:21.718Z,18.28
2019-04-16T12:10:21.779Z,18.12
2019-04-16T12:11:21.846Z,17.78
2019-04-16T12:12:21.984Z,17.90
2019-04-16T12:13:21.967Z,17.46
2019-04-16T12:14:30.649Z,17.39
2019-04-16T12:15:22.016Z,17.38
2019-04-16T12:16:24.375Z,17.53
2019-04-16T12:17:22.106Z,17.50
2019-04-16T12:18:22.134Z,17.50
2019-04-16T12:19:22.192Z,17.39
2019-04-16T12:20:22.225Z,17.31
2019-04-16T12:21:22.269Z,16.80
2019-04-16T12:22:22.338Z,17.13
2019-04-16T12:23:22.400Z,17.09
2019-04-16T12:24:22.408Z,16.06
2019-04-16T12:25:22.543Z,15.92
2019-04-16T12:26:22.517Z,16.28
2019-04-16T12:27:22.543Z,17.02
2019-04-16T12:28:22.613Z,17.31
2019-04-16T12:29:23.264Z,17.50
2019-04-16T12:30:22.688Z,17.28
2019-04-16T12:31:22.724Z,17.60
2019-04-16T12:32:23.027Z,18.00
2019-04-16T12:33:22.892Z,17.98
2019-04-16T12:34:22.890Z,18.28
2019-04-16T12:35:22.928Z,18.53
2019-04-16T12:36:23.125Z,18.24
2019-04-16T12:37:23.043Z,17.93
2019-04-16T12:38:23.063Z,18.12
2019-04-16T12:39:23.136Z,18.46
2019-04-16T12:40:23.182Z,18.43
2019-04-16T12:41:23.225Z,18.24
2019-04-16T12:42:23.235Z,18.36
2019-04-16T12:43:23.278Z,18.36
2019-04-16T12:44:24.454Z,17.94
2019-04-16T12:45:23.449Z,16.84
2019-04-16T12:46:23.415Z,15.87
2019-04-16T12:47:23.494Z,16.10
2019-04-16T12:48:23.518Z,15.88
2019-04-16T12:49:23.572Z,15.11
2019-04-16T12:50:23.647Z,15.18
2019-04-16T12:51:23.645Z,14.85
2019-04-16T12:52:23.689Z,14.79
2019-04-16T12:53:23.784Z,14.74
2019-04-16T12:54:25.473Z,15.15
2019-04-16T12:55:23.936Z,15.98
2019-04-16T12:56:23.887Z,16.51
2019-04-16T12:57:23.911Z,16.18
2019-04-16T12:58:25.699Z,16.00
2019-04-16T12:59:24.009Z,16.03
2019-04-16T13:00:28.564Z,16.21
2019-04-16T13:01:24.090Z,15.87
2019-04-16T13:02:24.135Z,16.74
2019-04-16T13:03:24.177Z,16.92
2019-04-16T13:04:24.222Z,17.37